Time;durP1;ratioP1;P1;durP2;ratioP2;P2;SDS_P1;SDS_P2;PMS_P1;PMS_P2;Temp;Humidity;BMP_temperature;BMP_pressure;BME280_temperature;BME280_humidity;BME280_pressure;Samples;Min_cycle;Max_cycle;Signal;HPM_P1;HPM_P2
2022/04/23 00:00:39;;;;;;;20.38;10.88;;;6.10;99.90;;;;;;5113117;28;20483;-77
2022/04/23 00:03:05;;;;;;;19.55;11.05;;;6.00;99.90;;;;;;5113578;28;20055;-77
2022/04/23 00:05:31;;;;;;;19.75;10.75;;;5.90;99.90;;;;;;5114067;28;20056;-77
2022/04/23 00:07:57;;;;;;;18.35;10.52;;;5.90;99.90;;;;;;5113990;28;20024;-77
2022/04/23 00:10:23;;;;;;;20.17;11.60;;;5.90;99.90;;;;;;5113623;28;20035;-77
2022/04/23 00:12:50;;;;;;;21.75;10.88;;;5.90;99.90;;;;;;5113797;27;20155;-77
2022/04/23 00:15:15;;;;;;;18.08;9.90;;;5.80;99.90;;;;;;5114008;28;20132;-77
2022/04/23 00:17:43;;;;;;;17.77;10.73;;;5.70;99.90;;;;;;5112394;28;20078;-77
2022/04/23 00:20:11;;;;;;;20.20;11.27;;;5.60;99.90;;;;;;5097476;28;20252;-77
2022/04/23 00:22:37;;;;;;;23.70;12.98;;;5.60;99.90;;;;;;5092271;28;20016;-77
2022/04/23 00:25:04;;;;;;;20.90;11.55;;;5.60;99.90;;;;;;5091407;28;20028;-77
2022/04/23 00:27:29;;;;;;;27.75;14.52;;;5.80;99.90;;;;;;5092102;28;20102;-76
2022/04/23 00:29:55;;;;;;;26.42;13.50;;;5.90;99.90;;;;;;5090516;28;20539;-77
2022/04/23 00:32:21;;;;;;;22.67;13.30;;;5.90;99.90;;;;;;5091107;28;20101;-77
2022/04/23 00:34:46;;;;;;;27.25;14.48;;;5.90;99.90;;;;;;5090178;28;20127;-77
2022/04/23 00:37:13;;;;;;;28.00;13.75;;;6.00;99.90;;;;;;5092145;28;20024;-77
2022/04/23 00:39:39;;;;;;;21.70;13.23;;;5.90;99.90;;;;;;5091802;28;20245;-76
2022/04/23 00:42:08;;;;;;;23.13;12.18;;;5.90;99.90;;;;;;5091212;28;20653;-77
2022/04/23 00:44:35;;;;;;;20.75;12.20;;;5.80;99.90;;;;;;5091107;28;20035;-76
2022/04/23 00:47:01;;;;;;;25.38;15.07;;;5.80;99.90;;;;;;5089595;28;20492;-77
2022/04/23 00:49:27;;;;;;;23.52;12.68;;;5.70;99.90;;;;;;5090787;28;20219;-76
2022/04/23 00:51:53;;;;;;;25.92;13.70;;;5.60;99.90;;;;;;5091262;28;20223;-77
2022/04/23 00:54:21;;;;;;;24.33;12.98;;;5.60;99.90;;;;;;5091642;28;20105;-77
2022/04/23 00:56:47;;;;;;;24.15;11.95;;;5.60;99.90;;;;;;5089974;28;20030;-77
2022/04/23 00:59:13;;;;;;;21.08;11.73;;;5.60;99.90;;;;;;5092871;28;20032;-77
2022/04/23 01:01:40;;;;;;;26.90;13.13;;;5.50;99.90;;;;;;5093175;28;20480;-77
2022/04/23 01:04:07;;;;;;;26.60;14.98;;;5.50;99.90;;;;;;5092009;28;20144;-77
2022/04/23 01:06:37;;;;;;;34.60;15.55;;;5.80;99.90;;;;;;5092670;28;20035;-77
2022/04/23 01:09:08;;;;;;;27.60;14.57;;;5.90;99.90;;;;;;5094261;28;20020;-77
2022/04/23 01:11:35;;;;;;;27.27;14.57;;;5.90;99.90;;;;;;5092289;28;20035;-77
2022/04/23 01:14:01;;;;;;;25.80;14.40;;;6.00;99.90;;;;;;5090671;28;20040;-77
2022/04/23 01:16:27;;;;;;;28.08;14.75;;;6.00;99.90;;;;;;5090834;28;20027;-77
2022/04/23 01:18:53;;;;;;;25.17;15.10;;;6.20;99.90;;;;;;5093570;28;20016;-76
2022/04/23 01:21:19;;;;;;;28.17;14.88;;;6.20;99.90;;;;;;5093197;28;20318;-77
2022/04/23 01:23:48;;;;;;;29.50;16.20;;;6.30;99.90;;;;;;5092237;28;20084;-77
2022/04/23 01:26:24;;;;;;;36.03;15.35;;;6.30;99.90;;;;;;5093982;28;20047;-77
2022/04/23 01:28:50;;;;;;;26.40;14.32;;;6.40;99.90;;;;;;5093354;28;20052;-77
2022/04/23 01:31:16;;;;;;;28.00;16.30;;;6.60;99.90;;;;;;5092813;28;20042;-77
2022/04/23 01:33:41;;;;;;;30.70;14.75;;;6.70;99.90;;;;;;5091810;28;20016;-77
2022/04/23 01:36:07;;;;;;;28.90;15.95;;;6.80;99.90;;;;;;5092232;28;20024;-76
2022/04/23 01:38:33;;;;;;;25.98;14.80;;;6.80;99.90;;;;;;5090718;28;20143;-76
2022/04/23 01:40:59;;;;;;;26.52;14.30;;;6.80;99.90;;;;;;5091251;28;20020;-77
2022/04/23 01:43:25;;;;;;;26.25;14.35;;;6.80;99.90;;;;;;5091721;28;20020;-77
2022/04/23 01:45:51;;;;;;;25.27;13.80;;;6.80;99.90;;;;;;5092140;28;20031;-77
2022/04/23 01:48:16;;;;;;;26.70;13.98;;;6.80;99.90;;;;;;5092108;28;20024;-77
2022/04/23 01:50:42;;;;;;;23.17;13.35;;;6.80;99.90;;;;;;5091469;28;20039;-77
2022/04/23 01:53:08;;;;;;;24.55;13.45;;;6.80;99.90;;;;;;5091972;28;20031;-76
2022/04/23 01:55:33;;;;;;;26.00;14.88;;;6.80;99.90;;;;;;5092158;28;20081;-77
2022/04/23 01:57:59;;;;;;;28.55;14.35;;;6.70;99.90;;;;;;5091781;28;20058;-77
2022/04/23 02:00:25;;;;;;;26.45;14.48;;;6.80;99.90;;;;;;5091909;28;20027;-77
2022/04/23 02:02:50;;;;;;;24.17;13.60;;;6.90;99.90;;;;;;5090468;28;20028;-77
2022/04/23 02:05:16;;;;;;;22.92;12.80;;;6.80;99.90;;;;;;5092268;28;20020;-77
2022/04/23 02:07:43;;;;;;;26.33;14.60;;;6.80;99.90;;;;;;5092631;28;20412;-77
2022/04/23 02:10:11;;;;;;;24.42;13.80;;;6.90;99.90;;;;;;5091249;28;20028;-77
2022/04/23 02:12:38;;;;;;;24.83;14.38;;;7.00;99.90;;;;;;5092227;28;20464;-77
2022/04/23 02:15:14;;;;;;;21.15;12.90;;;6.90;99.90;;;;;;5091954;28;20109;-77
2022/04/23 02:17:43;;;;;;;25.98;13.98;;;6.90;99.90;;;;;;5091946;28;20020;-77
2022/04/23 02:20:13;;;;;;;24.15;13.98;;;6.90;99.90;;;;;;5091935;28;20051;-77
2022/04/23 02:22:39;;;;;;;25.45;14.50;;;7.00;99.90;;;;;;5092491;28;20385;-78
2022/04/23 02:25:06;;;;;;;23.08;14.32;;;7.10;99.90;;;;;;5091711;28;20031;-76
2022/04/23 02:27:43;;;;;;;27.13;15.90;;;7.20;99.90;;;;;;5091002;28;20399;-77
2022/04/23 02:30:11;;;;;;;26.05;13.32;;;7.30;99.90;;;;;;5089186;28;20112;-77
2022/04/23 02:32:36;;;;;;;25.38;14.38;;;7.40;99.90;;;;;;5090377;28;20461;-78
2022/04/23 02:35:04;;;;;;;23.13;14.38;;;7.40;99.90;;;;;;5091337;28;20024;-77
2022/04/23 02:37:35;;;;;;;27.83;14.38;;;7.40;99.90;;;;;;5089926;28;20028;-76
2022/04/23 02:40:02;;;;;;;24.27;13.90;;;7.50;99.90;;;;;;5089521;28;20119;-77
2022/04/23 02:42:29;;;;;;;24.13;13.90;;;7.50;99.90;;;;;;5090433;28;20016;-79
2022/04/23 02:44:55;;;;;;;22.73;13.70;;;7.60;99.90;;;;;;5089117;28;20024;-77
2022/04/23 02:47:21;;;;;;;22.38;12.40;;;7.60;99.90;;;;;;5090460;28;20090;-77
2022/04/23 02:49:47;;;;;;;25.08;13.32;;;7.60;99.90;;;;;;5090643;28;20070;-77
2022/04/23 02:52:13;;;;;;;23.90;13.50;;;7.70;99.90;;;;;;5088680;28;20091;-77
2022/04/23 02:54:38;;;;;;;20.52;13.00;;;7.90;99.90;;;;;;5072054;28;20039;-77
2022/04/23 02:57:04;;;;;;;30.30;15.45;;;7.80;99.90;;;;;;5090060;28;20149;-76
2022/04/23 02:59:30;;;;;;;31.33;17.20;;;7.80;99.90;;;;;;5089062;28;20024;-76
2022/04/23 03:01:56;;;;;;;24.73;13.75;;;7.80;99.90;;;;;;5090489;28;20476;-76
2022/04/23 03:04:22;;;;;;;29.02;14.82;;;7.80;99.90;;;;;;5090879;28;20150;-76
2022/04/23 03:06:47;;;;;;;26.13;14.48;;;7.90;99.90;;;;;;5089958;28;20026;-76
2022/04/23 03:09:13;;;;;;;24.92;14.38;;;7.90;99.90;;;;;;5090485;28;20028;-77
2022/04/23 03:11:38;;;;;;;25.70;14.90;;;7.90;99.90;;;;;;5090242;28;20103;-76
2022/04/23 03:14:04;;;;;;;24.17;14.20;;;7.90;99.90;;;;;;5089009;28;20549;-76
2022/04/23 03:16:31;;;;;;;23.67;14.55;;;7.90;99.90;;;;;;5092578;28;20028;-76
2022/04/23 03:18:57;;;;;;;27.05;14.18;;;7.90;99.90;;;;;;5090120;28;20023;-76
2022/04/23 03:21:24;;;;;;;25.75;14.55;;;7.90;99.90;;;;;;5090182;28;20424;-76
2022/04/23 03:23:50;;;;;;;26.38;14.57;;;8.00;99.90;;;;;;5090104;28;20103;-76
2022/04/23 03:26:16;;;;;;;25.77;14.48;;;8.00;99.90;;;;;;5089929;28;20430;-75
2022/04/23 03:28:41;;;;;;;23.50;14.98;;;8.00;99.90;;;;;;5089589;28;20076;-76
2022/04/23 03:31:08;;;;;;;28.05;15.20;;;8.00;99.90;;;;;;5089938;28;20044;-76
2022/04/23 03:33:34;;;;;;;27.60;15.30;;;8.20;99.90;;;;;;5089656;28;20435;-76
2022/04/23 03:36:00;;;;;;;22.98;13.43;;;8.20;99.90;;;;;;5091551;28;20059;-77
2022/04/23 03:38:26;;;;;;;28.13;13.68;;;8.20;99.90;;;;;;5092320;28;20405;-76
2022/04/23 03:40:55;;;;;;;24.73;14.93;;;8.20;99.90;;;;;;5093433;28;20058;-76
2022/04/23 03:43:21;;;;;;;22.95;14.27;;;8.10;99.90;;;;;;5094163;28;20020;-76
2022/04/23 03:45:47;;;;;;;22.23;13.63;;;8.10;99.90;;;;;;5095429;28;20020;-75
2022/04/23 03:48:14;;;;;;;21.80;13.10;;;8.00;99.90;;;;;;5093787;28;20028;-76
2022/04/23 03:50:40;;;;;;;25.77;14.55;;;8.00;99.90;;;;;;5094119;28;20040;-76
2022/04/23 03:53:06;;;;;;;25.33;14.55;;;8.00;99.90;;;;;;5093658;28;20362;-76
2022/04/23 03:55:32;;;;;;;27.60;13.98;;;8.00;99.90;;;;;;5091685;28;20028;-76
2022/04/23 03:57:58;;;;;;;25.00;14.68;;;8.00;99.90;;;;;;5093523;28;20020;-77
2022/04/23 04:00:24;;;;;;;24.73;13.10;;;7.90;99.90;;;;;;5093645;28;20251;-76
2022/04/23 04:02:50;;;;;;;23.55;12.93;;;7.80;99.90;;;;;;5093133;28;20020;-76
2022/04/23 04:05:17;;;;;;;25.83;14.10;;;7.80;99.90;;;;;;5092660;28;20016;-76
2022/04/23 04:07:44;;;;;;;25.90;14.40;;;7.70;99.90;;;;;;5093575;28;20031;-76
2022/04/23 04:10:11;;;;;;;29.17;15.10;;;7.70;99.90;;;;;;5091722;28;20040;-76
2022/04/23 04:12:37;;;;;;;24.05;14.27;;;7.70;99.90;;;;;;5092955;28;20016;-78
2022/04/23 04:15:09;;;;;;;27.08;14.23;;;7.70;99.90;;;;;;5092946;28;20052;-76
2022/04/23 04:17:36;;;;;;;23.33;14.63;;;7.70;99.90;;;;;;5094177;28;20026;-77
2022/04/23 04:20:07;;;;;;;26.70;15.20;;;7.70;99.90;;;;;;5092570;28;20024;-77
2022/04/23 04:22:34;;;;;;;28.20;15.52;;;7.60;99.90;;;;;;5093448;28;20069;-77
2022/04/23 04:25:02;;;;;;;28.83;14.95;;;7.60;99.90;;;;;;5092876;28;20020;-77
2022/04/23 04:27:28;;;;;;;29.55;16.55;;;7.60;99.90;;;;;;5092444;28;20022;-76
2022/04/23 04:29:54;;;;;;;30.45;17.58;;;7.60;99.90;;;;;;5092800;28;20036;-76
2022/04/23 04:32:20;;;;;;;27.58;15.10;;;7.70;99.90;;;;;;5092742;28;20448;-76
2022/04/23 04:34:46;;;;;;;28.58;15.85;;;7.80;99.90;;;;;;5092512;28;20020;-76
2022/04/23 04:37:12;;;;;;;30.27;16.60;;;7.80;99.90;;;;;;5092507;28;20073;-76
2022/04/23 04:39:40;;;;;;;27.75;15.32;;;7.80;99.90;;;;;;5090930;28;20153;-76
2022/04/23 04:42:07;;;;;;;31.08;15.43;;;7.80;99.90;;;;;;5091080;28;20024;-76
2022/04/23 04:44:34;;;;;;;28.30;15.82;;;7.80;99.90;;;;;;5093040;28;20078;-76
2022/04/23 04:47:00;;;;;;;28.92;15.43;;;7.80;99.90;;;;;;5090653;28;20024;-77
2022/04/23 04:49:26;;;;;;;25.50;14.68;;;7.80;99.90;;;;;;5092443;28;20028;-77
2022/04/23 04:51:53;;;;;;;26.65;13.95;;;8.00;99.90;;;;;;5092696;28;20392;-76
2022/04/23 04:54:21;;;;;;;27.98;15.07;;;8.00;99.90;;;;;;5092332;28;20020;-76
2022/04/23 04:56:48;;;;;;;25.08;14.35;;;8.10;99.90;;;;;;5091536;28;20027;-77
2022/04/23 04:59:14;;;;;;;25.48;14.27;;;8.10;99.90;;;;;;5027429;28;20402;-77
2022/04/23 05:01:40;;;;;;;26.25;14.48;;;8.10;99.90;;;;;;5030813;28;20018;-77
2022/04/23 05:04:06;;;;;;;26.05;14.60;;;8.10;99.90;;;;;;5031569;28;20105;-77
2022/04/23 05:06:31;;;;;;;25.95;15.38;;;8.20;99.90;;;;;;5031887;28;20498;-77
2022/04/23 05:08:57;;;;;;;28.45;15.98;;;8.20;99.90;;;;;;5031723;28;20049;-76
2022/04/23 05:11:24;;;;;;;23.77;13.95;;;8.10;99.90;;;;;;5031279;28;20029;-77
2022/04/23 05:13:50;;;;;;;30.02;14.43;;;8.10;99.90;;;;;;5032016;28;20393;-77
2022/04/23 05:16:16;;;;;;;27.35;14.82;;;8.20;99.90;;;;;;5031494;28;20033;-77
2022/04/23 05:18:42;;;;;;;24.05;13.75;;;8.30;99.90;;;;;;5031795;28;20023;-77
2022/04/23 05:21:08;;;;;;;24.65;13.65;;;8.30;99.90;;;;;;5047478;28;20034;-77
2022/04/23 05:23:34;;;;;;;19.70;11.90;;;8.40;99.90;;;;;;5031386;28;20258;-77
2022/04/23 05:26:00;;;;;;;21.25;12.82;;;8.40;99.90;;;;;;5031188;28;20475;-79
2022/04/23 05:28:25;;;;;;;22.50;12.27;;;8.40;99.90;;;;;;5030981;28;20018;-76
2022/04/23 05:30:51;;;;;;;23.30;12.85;;;8.50;99.90;;;;;;5031323;28;20100;-77
2022/04/23 05:33:17;;;;;;;20.48;12.57;;;8.50;99.90;;;;;;5029861;28;20029;-77
2022/04/23 05:35:43;;;;;;;19.50;11.77;;;8.70;99.90;;;;;;5030785;28;20032;-76
2022/04/23 05:38:08;;;;;;;21.20;11.57;;;8.70;99.90;;;;;;5031771;28;20025;-77
2022/04/23 05:40:34;;;;;;;20.98;13.13;;;8.70;99.90;;;;;;5029681;28;20029;-76
2022/04/23 05:43:01;;;;;;;21.33;12.52;;;8.70;99.90;;;;;;5031209;28;20485;-76
2022/04/23 05:45:28;;;;;;;21.60;12.70;;;8.80;99.90;;;;;;5033024;28;20025;-77
2022/04/23 05:47:54;;;;;;;23.67;14.20;;;8.80;99.90;;;;;;5031410;28;20022;-77
2022/04/23 05:50:20;;;;;;;24.92;14.57;;;8.80;99.90;;;;;;5031061;28;20036;-76
2022/04/23 05:52:46;;;;;;;25.55;13.57;;;8.90;99.90;;;;;;5031961;28;20081;-73
2022/04/23 05:55:12;;;;;;;30.85;18.15;;;9.00;99.90;;;;;;5031754;28;20600;-75
2022/04/23 05:57:38;;;;;;;22.15;13.93;;;9.10;99.90;;;;;;5034018;28;20045;-75
2022/04/23 06:00:06;;;;;;;25.42;15.40;;;9.10;99.90;;;;;;5031358;28;20534;-74
2022/04/23 06:02:31;;;;;;;28.85;16.23;;;9.10;99.90;;;;;;5045946;28;20021;-75
2022/04/23 06:04:58;;;;;;;20.17;12.48;;;9.20;99.90;;;;;;5028480;28;20564;-77
2022/04/23 06:07:24;;;;;;;22.38;13.00;;;9.20;99.90;;;;;;5030486;28;20025;-74
2022/04/23 06:09:50;;;;;;;22.40;13.23;;;9.30;99.90;;;;;;5028729;28;20665;-76
2022/04/23 06:12:16;;;;;;;21.30;13.98;;;9.30;99.90;;;;;;5030972;28;20104;-75
2022/04/23 06:14:44;;;;;;;21.85;12.23;;;9.40;99.90;;;;;;5032269;28;20041;-76
2022/04/23 06:17:11;;;;;;;27.70;13.38;;;9.50;99.90;;;;;;5042927;28;20471;-74
2022/04/23 06:19:41;;;;;;;21.70;13.25;;;9.60;99.90;;;;;;5027778;28;20075;-75
2022/04/23 06:22:07;;;;;;;23.02;13.52;;;9.60;99.90;;;;;;5029554;28;20053;-77
2022/04/23 06:24:34;;;;;;;22.60;14.52;;;9.60;99.90;;;;;;5028836;28;20060;-77
2022/04/23 06:27:00;;;;;;;22.85;14.10;;;9.60;99.90;;;;;;5029913;28;20029;-77
2022/04/23 06:29:26;;;;;;;22.33;13.18;;;9.70;99.90;;;;;;5027564;28;20029;-76
2022/04/23 06:31:51;;;;;;;21.45;13.57;;;9.80;99.90;;;;;;5038410;28;20103;-76
2022/04/23 06:34:17;;;;;;;22.75;13.10;;;9.90;99.90;;;;;;5047269;28;20024;-76
2022/04/23 06:36:43;;;;;;;22.75;13.63;;;10.00;99.90;;;;;;5046731;28;20021;-77
2022/04/23 06:39:10;;;;;;;23.70;14.55;;;10.20;99.90;;;;;;5050216;28;20028;-75
2022/04/23 06:41:36;;;;;;;25.75;14.38;;;10.30;99.90;;;;;;5050441;28;20425;-75
2022/04/23 06:44:03;;;;;;;24.90;14.10;;;10.30;99.90;;;;;;5050996;28;20541;-76
2022/04/23 06:46:29;;;;;;;24.67;14.80;;;10.40;99.90;;;;;;5046156;28;20509;-76
2022/04/23 06:48:56;;;;;;;23.05;14.25;;;10.50;99.90;;;;;;5046806;28;20033;-78
2022/04/23 06:51:23;;;;;;;24.15;12.57;;;10.60;99.90;;;;;;5047634;28;20029;-74
2022/04/23 06:53:48;;;;;;;22.83;12.95;;;10.60;99.90;;;;;;5047714;28;20052;-75
2022/04/23 06:56:14;;;;;;;24.83;14.82;;;10.80;99.90;;;;;;5047090;28;20181;-74
2022/04/23 06:58:40;;;;;;;19.65;12.50;;;9.20;99.90;;;;;;5047420;28;20112;-74
2022/04/23 07:01:05;;;;;;;22.40;12.63;;;10.90;99.90;;;;;;5047438;28;20067;-74
2022/04/23 07:03:31;;;;;;;24.83;14.07;;;11.00;99.90;;;;;;5051132;28;20024;-74
2022/04/23 07:05:57;;;;;;;20.05;13.23;;;11.10;99.90;;;;;;5065925;28;20029;-74
2022/04/23 07:08:23;;;;;;;19.83;12.48;;;11.00;99.90;;;;;;5051785;28;20067;-77
2022/04/23 07:10:49;;;;;;;16.35;10.75;;;11.10;99.90;;;;;;5049766;28;20033;-75
2022/04/23 07:13:15;;;;;;;19.20;11.15;;;11.20;99.90;;;;;;5057268;28;20024;-75
2022/04/23 07:15:41;;;;;;;18.20;11.10;;;11.20;99.90;;;;;;5062529;28;20082;-75
2022/04/23 07:18:08;;;;;;;16.45;10.27;;;11.30;99.90;;;;;;5063128;28;20028;-75
2022/04/23 07:20:34;;;;;;;17.52;11.07;;;11.30;99.90;;;;;;5063739;28;20021;-74
2022/04/23 07:25:45;;;;;;;18.35;11.30;;;11.60;99.90;;;;;;5061686;28;20020;-74
2022/04/23 07:28:10;;;;;;;16.40;10.25;;;11.80;99.90;;;;;;5060947;28;20036;-73
2022/04/23 07:30:37;;;;;;;15.80;11.02;;;11.80;99.90;;;;;;5052379;28;20473;-75
2022/04/23 07:33:04;;;;;;;15.88;10.98;;;11.70;99.90;;;;;;5051007;28;20395;-75
2022/04/23 07:38:19;;;;;;;17.17;11.13;;;12.00;99.90;;;;;;5052236;28;20043;-77
2022/04/23 07:40:46;;;;;;;17.02;11.15;;;12.30;99.90;;;;;;5045230;28;20396;-74
2022/04/23 07:43:14;;;;;;;18.15;12.05;;;12.30;99.90;;;;;;5032640;28;20025;-74
2022/04/23 07:45:41;;;;;;;18.10;11.88;;;12.40;99.90;;;;;;5030795;28;20107;-74
2022/04/23 07:48:08;;;;;;;16.45;11.13;;;12.30;99.90;;;;;;5033737;28;20025;-75
2022/04/23 07:50:36;;;;;;;14.68;10.20;;;12.30;99.90;;;;;;5049594;28;20136;-74
2022/04/23 07:53:02;;;;;;;18.80;10.63;;;12.10;99.90;;;;;;5063671;28;20040;-75
2022/04/23 07:55:36;;;;;;;15.63;11.20;;;12.00;99.90;;;;;;5059046;28;20024;-76
2022/04/23 07:58:06;;;;;;;15.63;10.20;;;11.80;99.90;;;;;;5052830;28;20131;-75
2022/04/23 08:00:34;;;;;;;17.98;11.73;;;11.90;99.90;;;;;;5049973;28;20028;-75
2022/04/23 08:03:04;;;;;;;18.67;11.75;;;12.00;99.90;;;;;;5047562;28;20033;-78
2022/04/23 08:05:31;;;;;;;19.85;12.25;;;11.70;99.90;;;;;;5037243;28;20037;-74
2022/04/23 08:07:57;;;;;;;21.70;12.85;;;11.80;99.90;;;;;;5041198;28;20037;-74
2022/04/23 08:10:23;;;;;;;22.45;12.63;;;11.90;99.90;;;;;;5041222;28;20634;-73
2022/04/23 08:12:49;;;;;;;15.80;11.20;;;;;;;;;;5034673;28;20044;-74
2022/04/23 08:15:15;;;;;;;21.48;11.88;;;12.20;99.90;;;;;;5040365;28;20053;-74
2022/04/23 08:17:41;;;;;;;18.77;11.57;;;12.20;99.90;;;;;;5036249;28;20249;-74
2022/04/23 08:20:08;;;;;;;17.75;11.90;;;12.10;99.90;;;;;;5036589;28;20021;-74
2022/04/23 08:22:34;;;;;;;20.65;12.48;;;12.10;99.90;;;;;;5040586;28;20018;-74
2022/04/23 08:25:00;;;;;;;20.27;11.80;;;12.00;99.90;;;;;;5047030;28;20032;-75
2022/04/23 08:27:26;;;;;;;23.88;12.10;;;12.10;99.90;;;;;;5050862;28;20080;-74
2022/04/23 08:32:36;;;;;;;35.42;12.32;;;11.90;99.90;;;;;;5041713;28;20041;-75
2022/04/23 08:35:04;;;;;;;21.15;12.20;;;12.00;99.90;;;;;;5046888;28;20021;-74
2022/04/23 08:37:30;;;;;;;22.52;12.90;;;11.90;99.90;;;;;;5050179;28;20021;-73
2022/04/23 08:39:55;;;;;;;20.42;12.65;;;11.80;99.90;;;;;;5045188;28;20013;-74
2022/04/23 08:42:21;;;;;;;19.98;13.07;;;11.90;99.90;;;;;;5050316;28;20049;-73
2022/04/23 08:44:47;;;;;;;19.63;11.88;;;12.00;99.90;;;;;;5055199;28;20027;-73
2022/04/23 08:47:16;;;;;;;18.95;12.50;;;;;;;;;;5046421;28;20593;-73
2022/04/23 08:49:42;;;;;;;19.92;13.55;;;12.40;99.90;;;;;;5035341;28;20430;-73
2022/04/23 08:52:29;;;;;;;21.33;12.02;;;12.40;99.90;;;;;;5039428;28;20038;-73
2022/04/23 08:54:56;;;;;;;16.73;11.25;;;12.50;99.90;;;;;;5052280;28;20313;-73
2022/04/23 08:57:22;;;;;;;20.10;12.07;;;12.70;99.90;;;;;;5039119;28;20041;-73
2022/04/23 08:59:51;;;;;;;18.55;11.90;;;12.80;99.90;;;;;;5050336;28;20017;-73
2022/04/23 09:02:19;;;;;;;20.07;12.70;;;12.90;99.90;;;;;;5052379;28;20021;-73
2022/04/23 09:04:44;;;;;;;22.67;12.60;;;12.80;99.90;;;;;;5042346;28;20303;-73
2022/04/23 09:07:18;;;;;;;21.13;12.85;;;12.90;99.90;;;;;;5055455;28;20036;-73
2022/04/23 09:09:49;;;;;;;20.80;14.00;;;12.80;99.90;;;;;;5052721;28;20025;-73
2022/04/23 09:12:16;;;;;;;19.65;12.75;;;12.80;99.90;;;;;;5046582;28;20041;-73
2022/04/23 09:14:42;;;;;;;18.73;11.63;;;12.60;99.90;;;;;;5061891;28;20045;-73
2022/04/23 09:25:37;;;;;;;24.55;13.05;;;12.60;99.90;;;;;;5050074;28;20095;-73
2022/04/23 09:28:26;;;;;;;17.92;11.93;;;12.70;99.90;;;;;;5032848;28;20422;-73
2022/04/23 09:30:54;;;;;;;20.10;12.05;;;13.00;99.90;;;;;;5027447;28;20305;-73
2022/04/23 09:33:27;;;;;;;20.55;13.20;;;13.00;99.90;;;;;;5029422;28;20029;-72
2022/04/23 09:36:03;;;;;;;21.55;13.20;;;12.90;99.90;;;;;;5028769;28;20036;-72
2022/04/23 09:38:30;;;;;;;23.17;13.65;;;12.50;99.90;;;;;;5029751;28;20410;-72
2022/04/23 09:40:58;;;;;;;19.60;12.52;;;12.40;99.90;;;;;;5037870;28;20025;-72
2022/04/23 09:43:32;;;;;;;20.83;12.40;;;12.40;99.90;;;;;;5048500;28;20047;-72
2022/04/23 09:46:08;;;;;;;21.35;13.13;;;12.40;99.90;;;;;;5049273;28;20104;-73
2022/04/23 09:48:36;;;;;;;20.42;12.20;;;12.10;99.90;;;;;;5048748;28;20021;-73
2022/04/23 09:51:02;;;;;;;24.23;13.73;;;12.10;99.90;;;;;;5043380;28;20045;-73
2022/04/23 09:53:28;;;;;;;23.52;13.73;;;12.10;99.90;;;;;;5042826;28;20025;-72
2022/04/23 09:56:05;;;;;;;18.52;12.38;;;12.00;99.90;;;;;;5043340;28;20671;-72
2022/04/23 09:58:33;;;;;;;21.55;12.85;;;12.00;99.90;;;;;;5028526;28;20102;-73
2022/04/23 10:01:02;;;;;;;21.45;13.90;;;11.80;99.90;;;;;;5027996;28;20466;-72
2022/04/23 10:03:30;;;;;;;18.73;12.13;;;11.80;99.90;;;;;;5028858;28;20493;-73
2022/04/23 10:05:57;;;;;;;20.02;12.00;;;11.70;99.90;;;;;;5029464;28;20398;-73
2022/04/23 10:08:29;;;;;;;17.92;12.45;;;11.60;99.90;;;;;;5028930;28;20486;-72
2022/04/23 10:10:56;;;;;;;23.40;13.75;;;11.50;99.90;;;;;;5028815;28;20465;-72
2022/04/23 10:13:28;;;;;;;20.70;12.60;;;11.40;99.90;;;;;;5026819;28;20024;-72
2022/04/23 10:15:55;;;;;;;18.40;12.15;;;11.30;99.90;;;;;;5029091;28;20034;-73
2022/04/23 10:18:21;;;;;;;22.83;12.48;;;11.20;99.90;;;;;;5027407;28;20449;-73
2022/04/23 10:20:55;;;;;;;23.33;14.93;;;11.10;99.90;;;;;;5026975;28;20088;-72
2022/04/23 10:23:30;;;;;;;25.63;14.65;;;10.90;99.90;;;;;;5027488;28;20071;-72
2022/04/23 10:26:23;;;;;;;27.30;15.60;;;10.70;99.90;;;;;;5028154;28;20245;-72
2022/04/23 10:28:50;;;;;;;30.05;15.88;;;10.50;99.90;;;;;;5027440;28;20053;-72
2022/04/23 10:31:17;;;;;;;30.00;15.38;;;10.40;99.90;;;;;;5027785;28;20378;-71
2022/04/23 10:33:50;;;;;;;28.60;16.67;;;10.30;99.90;;;;;;5026846;28;20025;-71
2022/04/23 10:36:16;;;;;;;32.75;17.17;;;10.10;99.90;;;;;;5042752;28;20444;-71
2022/04/23 10:38:45;;;;;;;32.05;16.08;;;10.10;99.90;;;;;;5026128;28;20379;-72
2022/04/23 10:41:12;;;;;;;25.90;16.42;;;10.00;99.90;;;;;;5041381;28;20040;-73
2022/04/23 10:43:49;;;;;;;30.75;15.45;;;10.10;99.90;;;;;;5026196;28;20057;-71
2022/04/23 10:46:37;;;;;;;33.47;17.15;;;10.10;99.90;;;;;;5028080;28;20494;-71
2022/04/23 10:49:18;;;;;;;27.65;15.77;;;10.00;99.90;;;;;;5025947;28;20021;-71
2022/04/23 10:51:57;;;;;;;28.08;14.38;;;10.00;99.90;;;;;;5043220;28;20035;-73
2022/04/23 10:54:42;;;;;;;33.70;18.55;;;10.00;99.90;;;;;;5047624;28;20776;-73
2022/04/23 10:57:09;;;;;;;27.75;14.77;;;10.10;99.90;;;;;;5047934;28;20029;-72
2022/04/23 10:59:49;;;;;;;32.88;18.92;;;10.20;99.90;;;;;;5046204;28;20029;-71
2022/04/23 11:02:24;;;;;;;32.25;18.88;;;10.50;99.90;;;;;;5056410;28;20116;-70
2022/04/23 11:13:49;;;;;;;29.48;17.65;;;11.90;99.90;;;;;;5055419;28;20433;-73
2022/04/23 11:16:17;;;;;;;26.45;16.10;;;12.60;99.90;;;;;;5047083;28;20025;-74
2022/04/23 11:18:45;;;;;;;27.80;16.67;;;12.90;99.90;;;;;;5046059;28;20024;-74
2022/04/23 11:21:33;;;;;;;27.00;16.35;;;13.40;99.90;;;;;;5051401;28;20055;-76
2022/04/23 11:24:01;;;;;;;26.20;14.38;;;13.90;99.90;;;;;;5045867;28;20032;-74
2022/04/23 11:26:41;;;;;;;23.15;14.70;;;14.40;99.90;;;;;;5045849;28;20025;-74
2022/04/23 11:29:09;;;;;;;25.88;15.35;;;14.90;99.90;;;;;;5045598;28;20101;-75
2022/04/23 11:31:35;;;;;;;23.23;15.50;;;14.50;99.90;;;;;;5046239;28;20045;-75
2022/04/23 11:34:02;;;;;;;21.85;14.07;;;14.20;99.90;;;;;;5046765;28;20366;-76
2022/04/23 11:36:36;;;;;;;22.38;14.60;;;13.80;99.90;;;;;;5050789;28;20059;-74
2022/04/23 11:39:08;;;;;;;23.73;13.98;;;14.10;99.90;;;;;;5045642;28;20027;-73
2022/04/23 11:41:50;;;;;;;20.48;13.48;;;14.90;99.90;;;;;;5045448;28;20056;-73
2022/04/23 11:44:45;;;;;;;21.55;14.10;;;14.90;99.90;;;;;;5044303;28;20508;-74
2022/04/23 11:47:08;;;;;;;20.60;12.23;;;15.00;99.90;;;;;;5044553;28;20402;-74
2022/04/23 11:49:34;;;;;;;24.52;13.48;;;15.70;99.90;;;;;;5044679;28;20023;-74
2022/04/23 11:52:05;;;;;;;18.67;13.10;;;15.30;99.90;;;;;;5025456;28;20030;-74
2022/04/23 11:54:39;;;;;;;21.80;13.15;;;15.40;99.90;;;;;;5024555;28;20049;-74
2022/04/23 11:57:16;;;;;;;21.20;13.30;;;15.40;99.90;;;;;;5026083;28;20025;-74
2022/04/23 11:59:44;;;;;;;29.08;14.80;;;16.00;99.90;;;;;;5027218;28;20018;-73
2022/04/23 12:02:22;;;;;;;19.67;13.68;;;15.70;99.90;;;;;;5027788;28;20014;-74
2022/04/23 12:04:59;;;;;;;19.23;12.60;;;16.10;99.90;;;;;;5028200;28;20541;-75
2022/04/23 12:07:25;;;;;;;20.80;13.55;;;17.20;99.90;;;;;;5027808;28;20029;-76
2022/04/23 12:09:55;;;;;;;22.73;13.52;;;16.90;99.90;;;;;;5027188;28;20345;-74
2022/04/23 12:12:22;;;;;;;16.83;11.77;;;17.90;99.90;;;;;;5028765;28;20021;-75
2022/04/23 12:14:55;;;;;;;22.65;12.85;;;18.90;99.90;;;;;;5028465;28;20494;-74
2022/04/23 12:17:31;;;;;;;15.98;12.52;;;18.40;99.90;;;;;;5028667;28;20029;-74
2022/04/23 12:19:59;;;;;;;24.50;15.18;;;18.20;99.90;;;;;;5028635;28;20076;-74
2022/04/23 12:22:25;;;;;;;19.05;13.13;;;18.50;99.90;;;;;;5027286;28;20040;-79
2022/04/23 12:24:52;;;;;;;21.17;14.35;;;18.60;99.90;;;;;;5028773;28;20032;-74
2022/04/23 12:27:17;;;;;;;17.02;12.40;;;17.80;99.90;;;;;;5028223;28;20124;-74
2022/04/23 12:40:52;;;;;;;18.65;13.77;;;17.10;99.90;;;;;;5030790;28;20041;-73
2022/04/23 12:43:26;;;;;;;19.70;13.40;;;16.60;99.90;;;;;;5029943;28;20029;-74
2022/04/23 12:46:10;;;;;;;20.45;13.52;;;16.40;99.90;;;;;;5030028;28;20017;-73
2022/04/23 12:49:00;;;;;;;21.45;14.23;;;16.40;99.90;;;;;;5031607;28;20325;-74
2022/04/23 12:51:26;;;;;;;24.67;15.05;;;16.20;99.90;;;;;;5042137;28;20083;-74
2022/04/23 12:53:52;;;;;;;24.38;15.43;;;15.60;99.90;;;;;;5048731;28;20052;-74
2022/04/23 12:56:19;;;;;;;24.27;15.38;;;15.30;99.90;;;;;;5046871;28;20428;-73
2022/04/23 12:58:46;;;;;;;24.75;15.23;;;15.40;99.90;;;;;;5048258;28;20620;-74
2022/04/23 13:01:12;;;;;;;23.45;15.15;;;15.60;99.90;;;;;;5047916;28;20024;-74
2022/04/23 13:03:44;;;;;;;22.95;15.18;;;15.50;99.90;;;;;;5049661;28;20424;-73
2022/04/23 13:08:54;;;;;;;24.58;15.80;;;15.70;99.90;;;;;;5049178;28;20060;-74
2022/04/23 13:11:33;;;;;;;26.30;16.60;;;15.90;99.90;;;;;;5049547;28;20041;-74
2022/04/23 13:14:05;;;;;;;25.15;16.75;;;15.60;99.90;;;;;;5049382;28;20063;-73
2022/04/23 13:16:36;;;;;;;27.95;16.15;;;16.00;99.90;;;;;;5049963;28;20056;-74